Close sub menu
NASDAQ
NY-Nasdaq Composite 25709,832 +383,71 +1,52% (18:39)
Stijgers 1 dag
Dalers 1 dag
Indices 1 dag
Advanced Micro Devices +16,4%
Lam Research Corp +6,7%
ASML Holding NV +6,3%
QUALCOMM +5,6%
PDD Holdings +5,6%
NVIDIA Corp +4,3%
KLA Corp +4,0%
Honeywell International +3,8%
Moderna +3,8%
Applied Materials +3,7%
Intel Corp +3,6%
Microchip Technology +3,5%
Diamondback Energy -5,7%
Workday -4,2%
Verisk Analytics -4,2%
Atlassian Corp -3,9%
GlobalFoundries -3,6%
Lucid Group Inc -3,6%
Cisco Systems -3,1%
Autodesk -3,1%
Zoom Communications Inc -2,6%
Intuit -2,4%
American Electric Power Company -2,4%
Zscaler -2,1%
AEX* 1.031,44+1,7%
Midkap* 1.064,37+1,8%
AMS Next 20®* 1.670,30+0,8%
FTSE100 10.438,66+2,1%
Dow Jones 49.820,60+1,1%
NASDAQ 25.709,832+1,5%
S&P500 7.340,79+1,1%
S&P Future 7.365,50+1,1%
BEL20** 5.555,15+2,1%
CAC 40** 8.062,31+1,1%
DAX 24.918,69+2,1%
* real time    ** slotkoers
NaamKoersVorige+/- %1 wk1 mndDit jaar 1 jaarTijd
Adobe 251,33 255,62 -1,7% +5,1% +5,2% -27,0% -32,9% 18:39
Advanced Micro Devices 413,65 355,26 +16,4% +9,9% +63,3% +65,9% +253,2% 18:39
Airbnb 139,86 139,73 +0,1% +0,5% +11,8% +2,9% +11,8% 18:39
Align Technology 171,81 168,71 +1,8% -4,8% -1,1% +8,1% -4,9% 18:37
Alphabet 396,03 384,27 +3,1% +10,6% +30,5% +22,5% +131,4% 18:39
Alphabet 399,16 388,43 +2,8% +11,1% +31,3% +24,1% +136,6% 18:39
Amazon.com 275,86 273,55 +0,8% +5,3% +30,4% +18,5% +46,8% 18:39
American Electric Power Company 133,72 137,04 -2,4% +1,1% +3,3% +18,8% +27,6% 18:39
Amgen 330,12 329,59 +0,2% -2,9% -5,3% +0,7% +17,7% 18:39
Analog Devices 415,36 404,77 +2,6% +5,6% +27,2% +49,3% +104,8% 18:39
Ansys 374,30 374,30 -- -- -4,7% +11,0% +15,2% 22:00
Apple 286,02 284,18 +0,6% +5,0% +11,1% +4,5% +42,9% 18:39
Applied Materials 426,02 410,82 +3,7% +7,8% +18,0% +59,9% +165,8% 18:39
ASML Holding NV 1.533,50 1.442,92 +6,3% +4,2% +9,5% +34,8% +111,1% 18:39
AstraZeneca PLC 194,94 194,94 -- -- +0,3% +112,1% +200,4% 00:00
Atlassian Corp 88,78 92,35 -3,9% +32,6% +35,4% -43,0% -55,5% 18:39
Autodesk 241,74 249,43 -3,1% +6,2% +4,8% -15,7% -10,9% 18:36
Automatic Data Processing 207,19 210,60 -1,6% +5,7% +3,2% -18,1% -30,7% 18:39
Baker Hughes Company 66,81 67,78 -1,4% +0,2% +12,3% +48,8% +84,4% 18:39
Biogen 189,52 189,13 +0,2% +3,1% +6,6% +7,5% +55,3% 18:38
Booking Holdings Inc. 168,86 167,63 +0,7% -3,3% -0,1% -21,8% -19,3% 18:39
Broadcom Inc. 421,86 427,36 -1,3% +6,9% +35,9% +23,5% +113,0% 18:39
Cadence Design Systems 350,60 353,63 -0,9% +8,7% +26,9% +13,1% +14,5% 18:39
Charter Communications 157,16 158,23 -0,7% -8,6% -28,0% -24,2% -59,9% 18:39
Cintas Corp 169,89 169,25 +0,4% -2,9% -2,9% -10,0% -20,1% 18:39
Cisco Systems 91,34 94,30 -3,1% +8,6% +19,3% +22,4% +59,0% 18:39
Cognizant Technology Solutions Corp 51,18 51,87 -1,3% -5,9% -17,0% -37,5% -33,4% 18:39
Comcast Corp 26,46 26,46 0,0% -4,3% -5,3% -11,5% -23,2% 18:39
Constellation Energy Corp 324,28 320,42 +1,2% +4,8% +17,4% -9,3% +29,0% 18:39
Copart 33,36 33,15 +0,6% -0,6% -0,7% -15,3% -45,7% 18:39
CoStar Group 34,67 34,90 -0,7% -2,9% -12,6% -48,1% -54,7% 18:39
Costco Wholesale Corp 995,10 1.016,42 -2,1% +2,3% +0,2% +17,9% +0,2% 18:39
CrowdStrike Holdings 467,42 476,53 -1,9% +4,7% +19,4% +1,7% +7,5% 18:39
CSX Corp 45,67 45,03 +1,4% -0,4% +9,2% +24,2% +58,2% 18:39
Datadog 143,58 145,73 -1,5% +10,8% +21,1% +7,2% +37,9% 18:39
DexCom 59,86 59,48 +0,6% +0,3% -4,4% -10,4% -25,9% 18:38
Diamondback Energy 194,37 206,18 -5,7% +3,1% +6,3% +37,2% +54,9% 18:39
Dollar Tree 95,49 93,69 +1,9% -4,6% -13,6% -23,8% +11,6% 18:39
eBay 108,06 105,26 +2,7% +4,9% +11,8% +20,9% +49,7% 18:39
Electronic Arts 201,42 201,57 -0,1% -0,6% -1,1% -1,4% +30,2% 18:38
Enphase Energy 35,81 36,02 -0,6% +5,0% +3,1% +12,3% -18,9% 18:38
Exelon Corp 45,51 46,18 -1,5% -1,8% -6,4% +5,9% +0,4% 18:39
Fastenal Co 45,15 44,33 +1,8% -0,8% -4,3% +10,5% +7,6% 18:39
Fortinet 88,68 89,92 -1,4% +4,9% +9,0% +13,2% -17,3% 18:39
Gilead Sciences 134,27 133,48 +0,6% +3,3% -4,5% +8,8% +29,8% 18:39
GlobalFoundries 71,37 74,04 -3,6% +24,3% +69,0% +111,7% +106,0% 18:39
Honeywell International 217,05 209,06 +3,8% -1,8% -8,9% +7,2% -2,4% 18:39
IDEXX Laboratories 575,58 562,97 +2,2% -0,9% -1,2% -16,8% +18,5% 18:37
Illumina 141,20 139,07 +1,5% +9,6% +9,2% +6,0% +77,9% 18:39
Intel Corp 112,01 108,15 +3,6% +28,0% +114,7% +193,2% +433,7% 18:39
Intuit 388,66 398,32 -2,4% -0,5% -5,7% -39,9% -37,0% 18:39
Intuitive Surgical 450,09 451,38 -0,3% -3,3% -0,2% -20,3% -15,1% 18:39
JD.com 30,54 29,68 +2,9% -0,1% +4,2% +3,4% -12,8% 18:38
Keurig Dr Pepper 28,44 28,92 -1,7% +0,5% +14,3% +3,2% -16,1% 18:39
KLA Corp 1.801,73 1.732,90 +4,0% -4,2% +14,3% +42,6% +150,0% 18:39
Kraft Heinz Company (The) 22,84 22,54 +1,3% +0,4% -1,0% -7,0% -21,1% 18:39
Lam Research Corp 294,30 275,80 +6,7% +9,8% +26,2% +61,1% +273,2% 18:39
Lucid Group Inc 6,03 6,25 -3,6% +6,5% -37,2% -40,9% -73,5% 18:39
lululemon athletica 131,47 130,21 +1,0% -8,6% -16,4% -37,3% -53,3% 18:38
Marriott International 359,20 354,52 +1,3% -1,1% +6,8% +14,3% +43,4% 18:39
Marvell Technology 169,72 168,75 +0,6% +10,1% +57,5% +98,6% +172,3% 18:39
MercadoLibre 1.847,07 1.817,31 +1,6% +1,4% +5,9% -9,8% -19,1% 18:39
Meta Platforms 611,34 604,96 +1,1% -9,9% +5,3% -8,3% +1,0% 18:39
Microchip Technology 101,96 98,48 +3,5% +16,9% +50,1% +54,6% +106,1% 18:39
Micron Technology Inc 653,94 640,20 +2,1% +27,0% +74,9% +124,4% +696,4% 18:39
Microsoft Corp 412,31 411,38 +0,2% -4,2% +10,1% -14,9% -5,7% 18:39
Moderna 48,47 46,71 +3,8% -0,9% -5,1% +58,4% +67,8% 18:39
Mondelez International 61,76 61,36 +0,7% +4,8% +6,6% +14,0% -9,5% 18:39
Monster Beverage Corp 76,94 75,80 +1,5% -1,8% +4,7% -1,1% +24,4% 18:39
Netflix Inc. 88,11 87,89 +0,2% -4,7% -10,9% -6,3% -22,5% 18:39
NVIDIA Corp 204,88 196,50 +4,3% -7,8% +10,8% +5,4% +72,6% 18:39
NXP Semiconductors NV 300,87 292,35 +2,9% +26,9% +50,3% +34,7% +58,1% 18:39
Old Dominion Freight Line 200,58 196,08 +2,3% -11,6% -1,0% +25,1% +25,5% 18:39
O'Reilly Automotive Inc 95,11 95,00 +0,1% +3,7% +3,9% +4,2% +2,7% 18:39
PACCAR 116,41 113,42 +2,6% -5,2% -4,1% +3,6% +26,8% 18:39
Palo Alto Networks Inc 182,27 183,98 -0,9% +1,7% +12,7% -0,1% -2,2% 18:39
Paychex 91,44 92,85 -1,5% +2,0% +1,3% -17,2% -37,9% 18:39
PayPal Holdings 46,12 46,49 -0,8% -6,4% +2,5% -20,4% -32,2% 18:39
PDD Holdings 102,13 96,75 +5,6% -0,6% -4,1% -14,7% -12,7% 18:39
Pepsico 155,47 155,04 +0,3% -0,8% -1,3% +8,0% +17,5% 18:39
QUALCOMM 197,08 186,55 +5,6% +24,4% +47,1% +9,1% +33,8% 18:39
Regeneron Pharmaceuticals 720,92 702,27 +2,7% -4,0% -7,8% -9,0% +16,4% 18:39
Rivian Automotive 14,51 14,60 -0,7% -9,5% -5,2% -25,9% +7,7% 18:39
Ross Stores 228,08 227,42 +0,3% +0,8% +3,4% +26,3% +60,8% 18:39
Seagen 228,89 228,74 -- -- +7,2% +78,1% +78,3% 22:00
SiriusXM Holdings Inc 26,47 26,40 +0,3% +0,5% +10,9% +32,0% +24,0% 18:39
Starbucks Corp 106,55 104,94 +1,5% +7,9% +16,1% +24,6% +28,5% 18:39
Synopsys 501,77 502,51 -0,1% +3,9% +27,1% +7,0% +5,3% 18:39
Tesla 396,69 389,37 +1,9% +3,5% +8,0% -13,4% +38,9% 18:39
Texas Instruments 290,24 281,00 +3,3% +6,0% +44,1% +61,9% +72,9% 18:39
T-Mobile US 193,20 194,31 -0,6% +4,1% -3,5% -4,3% -21,7% 18:38
Verisk Analytics 172,93 180,45 -4,2% +2,1% -2,5% -19,3% -38,8% 18:39
Vertex Pharmaceuticals 425,29 424,36 +0,2% -1,4% -3,3% -6,4% -15,2% 18:38
Walgreens Boots Alliance 11,98 11,98 -- -- +0,5% +28,4% +40,6% 22:00
Warner Bros Discovery 27,35 27,22 +0,5% +1,1% -0,3% -5,5% +225,5% 18:39
Workday 123,48 128,88 -4,2% +6,4% -2,6% -40,0% -48,1% 18:39
Xcel Energy 80,46 81,45 -1,2% +2,5% +0,9% +10,3% +14,9% 18:39
Zoom Communications Inc 106,22 109,10 -2,6% +19,7% +32,5% +26,4% +39,5% 18:39
Zscaler 138,35 141,36 -2,1% +3,9% +2,0% -37,2% -39,3% 18:39
Powered by

Schakel browser notificaties in

Schakel browser notificaties in om meldingen te ontvangen op dit apparaat.

Browser notificaties inschakelen

U heeft browser notificaties voor fd.nl eerder geweigerd. Ga naar browser instellingen en sta browser notificaties toe voor fd.nl. De precieze handelingen zijn afhankelijk van uw browser.

U volgt een onderwerp

Wanneer deze zoekterm in een artikel voorkomt, zult u deze terugvinden in Mijn nieuws onder ‘Eurobonds’.

Wilt u via de FD App meldingen ontvangen voor dit onderwerp?

Wilt u via de FD App meldingen ontvangen voor dit onderwerp?

Ons privacy statement is van toepassing.

Meldingen

Wanneer deze zoekterm in een artikel voorkomt, zult u deze terugvinden in Mijn nieuws onder ‘Eurobonds’.

Wilt u via de FD App meldingen ontvangen voor dit onderwerp?

Wilt u via de FD App meldingen ontvangen voor dit onderwerp?